Time;durP1;ratioP1;P1;durP2;ratioP2;P2;SDS_P1;SDS_P2;PMS_P1;PMS_P2;Temp;Humidity;BMP_temperature;BMP_pressure;BME280_temperature;BME280_humidity;BME280_pressure;Samples;Min_cycle;Max_cycle;Signal;HPM_P1;HPM_P2
2022/01/16 00:04:17;;;;;;;103.95;33.38;;;;;;;2.55;100.00;102274.75;5076912;28;20052;-32
2022/01/16 00:06:46;;;;;;;108.68;33.92;;;;;;;2.57;100.00;102280.06;5079040;28;20042;-35
2022/01/16 00:09:14;;;;;;;118.13;35.97;;;;;;;2.59;100.00;102294.47;5077258;28;20056;-33
2022/01/16 00:11:43;;;;;;;104.13;34.75;;;;;;;2.62;100.00;102285.75;5079559;28;20330;-39
2022/01/16 00:14:12;;;;;;;112.18;34.63;;;;;;;2.65;100.00;102286.19;5078354;28;20405;-38
2022/01/16 00:16:41;;;;;;;119.43;37.17;;;;;;;2.69;100.00;102286.63;5083656;28;20098;-34
2022/01/16 00:19:08;;;;;;;117.90;34.35;;;;;;;2.73;100.00;102285.13;5081378;28;20039;-32
2022/01/16 00:21:40;;;;;;;113.20;34.53;;;;;;;2.77;100.00;102286.41;5084171;28;20090;-33
2022/01/16 00:24:09;;;;;;;87.43;30.30;;;;;;;2.78;100.00;102293.63;5079669;28;20048;-34
2022/01/16 00:26:38;;;;;;;103.88;32.85;;;;;;;2.82;100.00;102303.13;5085158;28;20485;-39
2022/01/16 00:29:07;;;;;;;108.28;33.20;;;;;;;2.84;100.00;102300.16;5078048;28;20040;-33
2022/01/16 00:31:38;;;;;;;120.07;35.10;;;;;;;2.85;100.00;102288.09;5086067;28;20055;-32
2022/01/16 00:34:08;;;;;;;116.88;35.88;;;;;;;2.89;100.00;102286.59;5076512;28;20436;-33
2022/01/16 00:36:36;;;;;;;129.30;37.35;;;;;;;2.88;100.00;102283.00;5086122;28;20048;-33
2022/01/16 00:39:04;;;;;;;105.47;32.40;;;;;;;2.92;100.00;102288.94;5077137;28;20044;-35
2022/01/16 00:41:34;;;;;;;99.45;32.45;;;;;;;2.94;100.00;102292.34;5085576;28;20044;-33
2022/01/16 00:44:02;;;;;;;108.28;34.35;;;;;;;2.95;100.00;102289.38;5077165;28;20409;-36
2022/01/16 00:46:30;;;;;;;131.43;36.22;;;;;;;2.96;100.00;102287.47;5086184;28;20071;-32
2022/01/16 00:49:00;;;;;;;104.80;32.70;;;;;;;2.98;100.00;102282.59;5076840;28;20067;-34
2022/01/16 00:51:27;;;;;;;127.80;38.47;;;;;;;2.99;100.00;102278.75;5084716;28;20044;-39
2022/01/16 00:53:55;;;;;;;116.65;36.97;;;;;;;3.00;100.00;102270.25;5079126;28;20052;-31
2022/01/16 00:56:23;;;;;;;125.55;38.25;;;;;;;3.00;100.00;102270.25;5082628;28;20048;-36
2022/01/16 00:58:51;;;;;;;119.53;35.90;;;;;;;3.01;100.00;102257.31;5083747;28;20057;-31
2022/01/16 01:01:19;;;;;;;101.85;32.60;;;;;;;3.03;100.00;102253.28;5085237;28;20044;-37
2022/01/16 01:03:47;;;;;;;114.65;36.50;;;;;;;3.02;100.00;102251.59;5084079;28;20076;-39
2022/01/16 01:06:16;;;;;;;98.03;33.42;;;;;;;3.05;100.00;102229.09;5086694;28;20145;-41
2022/01/16 01:08:44;;;;;;;102.50;32.55;;;;;;;3.10;100.00;102211.91;5083025;28;20402;-35
2022/01/16 01:11:16;;;;;;;110.97;35.38;;;;;;;3.14;100.00;102217.84;5084657;28;20056;-36
2022/01/16 01:16:34;;;;;;;114.35;36.03;;;;;;;3.21;100.00;102221.41;5075169;28;20510;-33
2022/01/16 01:19:02;;;;;;;111.22;35.28;;;;;;;3.24;100.00;102240.28;5089670;28;20435;-38
2022/01/16 01:21:33;;;;;;;103.05;35.10;;;;;;;3.30;100.00;102248.56;5079759;28;20065;-37
2022/01/16 01:24:01;;;;;;;54.38;22.63;;;;;;;3.47;100.00;102244.25;5091321;28;20035;-33
2022/01/16 01:26:35;;;;;;;43.15;19.73;;;;;;;3.72;100.00;102244.34;5062666;28;20045;-36
2022/01/16 01:29:03;;;;;;;39.67;19.42;;;;;;;3.98;100.00;102239.75;5079587;28;20048;-34
2022/01/16 01:31:31;;;;;;;36.15;18.55;;;;;;;4.21;100.00;102244.69;5081452;28;20532;-37
2022/01/16 01:33:59;;;;;;;32.65;16.40;;;;;;;4.38;100.00;102234.81;5061461;28;20488;-30
2022/01/16 01:36:27;;;;;;;37.08;17.50;;;;;;;4.53;100.00;102259.34;5084415;28;20040;-34
2022/01/16 01:38:56;;;;;;;32.80;15.70;;;;;;;4.64;100.00;102262.22;5076102;28;20044;-36
2022/01/16 01:41:25;;;;;;;31.13;15.23;;;;;;;4.73;100.00;102268.31;5084869;28;20052;-35
2022/01/16 01:52:24;;;;;;;30.85;15.30;;;;;;;4.94;100.00;102182.16;5025834;28;20073;-31
2022/01/16 01:54:53;;;;;;;26.95;13.52;;;;;;;4.97;100.00;102167.88;5023546;28;20093;-35
2022/01/16 01:57:21;;;;;;;23.80;12.63;;;;;;;5.02;100.00;102170.78;5048617;28;20516;-34
2022/01/16 01:59:49;;;;;;;22.63;13.55;;;;;;;5.05;100.00;102186.06;5087136;28;20481;-36
2022/01/16 02:02:17;;;;;;;24.05;12.73;;;;;;;5.09;100.00;102188.16;5081064;28;20051;-30
2022/01/16 02:04:45;;;;;;;26.15;13.73;;;;;;;5.12;100.00;102203.47;5088478;28;20047;-36
2022/01/16 02:07:13;;;;;;;23.17;13.27;;;;;;;5.15;100.00;102222.38;5078880;28;20040;-34
2022/01/16 02:09:41;;;;;;;24.75;13.40;;;;;;;5.23;100.00;102218.44;5088907;28;20082;-30
2022/01/16 02:12:11;;;;;;;23.48;13.18;;;;;;;5.27;100.00;102219.66;5078505;28;20056;-31
2022/01/16 02:14:54;;;;;;;26.48;13.55;;;;;;;5.31;100.00;102223.66;5088453;28;20040;-39
2022/01/16 02:28:52;;;;;;;28.55;14.95;;;;;;;5.53;100.00;102213.81;5073671;28;20048;-37
2022/01/16 02:31:23;;;;;;;27.65;14.30;;;;;;;5.56;100.00;102216.13;5087585;28;20044;-35
2022/01/16 02:36:45;;;;;;;28.75;14.27;;;;;;;5.65;100.00;102217.47;5090114;28;20048;-38
2022/01/16 02:39:16;;;;;;;28.80;14.43;;;;;;;5.70;100.00;102220.41;5079404;28;20044;-33
2022/01/16 02:41:45;;;;;;;29.65;15.30;;;;;;;5.74;100.00;102213.31;5082612;28;20051;-36
2022/01/16 02:44:19;;;;;;;27.48;15.00;;;;;;;5.78;100.00;102205.41;5085129;28;20048;-32
2022/01/16 02:46:47;;;;;;;34.33;16.95;;;;;;;5.80;100.00;102220.66;5087620;28;20382;-37
2022/01/16 02:49:21;;;;;;;30.17;15.75;;;;;;;5.85;100.00;102222.75;5083259;28;20485;-35
2022/01/16 02:51:50;;;;;;;27.98;14.77;;;;;;;5.87;100.00;102203.97;5084149;28;20036;-38
2022/01/16 02:54:19;;;;;;;25.45;14.93;;;;;;;5.91;100.00;102212.69;5081096;28;20512;-35
2022/01/16 02:56:48;;;;;;;25.08;12.98;;;;;;;5.92;100.00;102201.38;5086057;28;20051;-33
2022/01/16 02:59:17;;;;;;;25.98;13.32;;;;;;;5.92;100.00;102197.75;5080946;28;20048;-34
2022/01/16 03:01:46;;;;;;;25.92;12.23;;;;;;;5.93;100.00;102192.00;5086787;28;20039;-40
2022/01/16 03:04:15;;;;;;;23.48;12.20;;;;;;;5.95;100.00;102200.06;5084821;28;20644;-33
2022/01/16 03:06:42;;;;;;;24.42;12.55;;;;;;;5.97;100.00;102187.66;5075990;28;20532;-33
2022/01/16 03:09:10;;;;;;;26.85;13.60;;;;;;;5.99;100.00;102181.91;5084415;28;20409;-37
2022/01/16 03:11:46;;;;;;;23.17;12.05;;;;;;;6.00;100.00;102181.63;5076170;28;20302;-38
2022/01/16 03:14:16;;;;;;;23.40;12.15;;;;;;;6.00;100.00;102180.78;5085210;28;20067;-37
2022/01/16 03:16:47;;;;;;;22.35;11.20;;;;;;;6.01;100.00;102174.16;5075397;28;20051;-31
2022/01/16 03:22:03;;;;;;;24.55;13.13;;;;;;;6.02;100.00;102173.09;5075430;28;20056;-36
2022/01/16 03:24:33;;;;;;;25.73;14.50;;;;;;;6.03;100.00;102174.78;5083849;28;20048;-35
2022/01/16 03:27:05;;;;;;;27.67;15.05;;;;;;;6.05;100.00;102165.16;5076122;28;20055;-31
2022/01/16 03:29:32;;;;;;;27.15;14.38;;;;;;;6.07;100.00;102174.06;5084610;28;20052;-35
2022/01/16 03:32:01;;;;;;;26.48;14.35;;;;;;;6.07;100.00;102163.00;5075939;28;20066;-34
2022/01/16 03:34:29;;;;;;;29.75;15.48;;;;;;;6.11;100.00;102164.22;5084186;28;20044;-32
2022/01/16 03:36:57;;;;;;;25.00;14.55;;;;;;;6.12;100.00;102146.50;5075359;28;20047;-33
2022/01/16 03:39:25;;;;;;;30.25;16.58;;;;;;;6.12;100.00;102145.66;5081915;28;20059;-35
2022/01/16 03:41:55;;;;;;;26.67;14.90;;;;;;;6.11;100.00;102143.97;5078626;28;20581;-36
2022/01/16 03:44:24;;;;;;;27.38;16.10;;;;;;;6.10;100.00;102148.66;5080067;28;20526;-35
2022/01/16 03:46:52;;;;;;;29.95;15.75;;;;;;;6.12;100.00;102159.50;5078300;28;20102;-33
2022/01/16 03:49:21;;;;;;;30.95;17.95;;;;;;;6.11;100.00;102155.91;5080112;28;20064;-35
2022/01/16 03:51:51;;;;;;;29.15;16.77;;;;;;;6.10;100.00;102156.13;5058202;28;20413;-40
2022/01/16 03:54:21;;;;;;;29.13;16.98;;;;;;;6.09;100.00;102146.13;5080007;28;20489;-36
2022/01/16 03:56:49;;;;;;;30.10;17.70;;;;;;;6.09;100.00;102146.13;5077520;28;20052;-32
2022/01/16 03:59:18;;;;;;;31.25;18.13;;;;;;;6.08;100.00;102142.50;5078991;28;20055;-35
2022/01/16 04:01:47;;;;;;;32.28;17.40;;;;;;;6.07;100.00;102151.06;5079126;28;20055;-32
2022/01/16 04:04:15;;;;;;;30.25;17.00;;;;;;;6.05;100.00;102151.28;5084086;28;20072;-34
2022/01/16 04:06:43;;;;;;;25.40;15.40;;;;;;;6.03;100.00;102147.06;5080462;28;20059;-32
2022/01/16 04:09:11;;;;;;;32.83;18.70;;;;;;;6.02;100.00;102148.16;5084989;28;20393;-36
2022/01/16 04:11:45;;;;;;;29.98;17.55;;;;;;;5.98;100.00;102153.34;5067939;28;20488;-36
2022/01/16 04:14:21;;;;;;;33.80;18.50;;;;;;;5.97;100.00;102153.59;5086475;28;20048;-33
2022/01/16 04:16:52;;;;;;;35.55;17.70;;;;;;;5.99;100.00;102149.50;5079254;28;20043;-36
2022/01/16 04:19:21;;;;;;;28.52;17.17;;;;;;;5.99;100.00;102143.09;5085751;28;20077;-38
2022/01/16 04:21:48;;;;;;;33.88;18.05;;;;;;;6.00;100.00;102131.75;5086645;28;20052;-30
2022/01/16 04:24:16;;;;;;;30.35;17.95;;;;;;;5.99;100.00;102141.19;5084557;28;20049;-35
2022/01/16 04:26:44;;;;;;;32.92;18.55;;;;;;;6.00;100.00;102153.91;5075236;28;20390;-33
2022/01/16 04:29:13;;;;;;;28.70;16.83;;;;;;;6.00;100.00;102145.63;5075310;28;20063;-35
2022/01/16 04:31:40;;;;;;;31.02;17.20;;;;;;;5.99;100.00;102141.19;5083720;28;20386;-34
2022/01/16 04:34:10;;;;;;;30.83;17.77;;;;;;;5.97;100.00;102137.81;5074077;28;20109;-35
2022/01/16 04:36:38;;;;;;;30.85;16.40;;;;;;;5.99;100.00;102138.41;5083418;28;20044;-40
2022/01/16 04:39:10;;;;;;;30.67;17.52;;;;;;;6.02;100.00;102142.59;5075336;28;20401;-40
2022/01/16 04:44:23;;;;;;;32.40;17.05;;;;;;;6.03;100.00;102131.28;5075552;28;20135;-36
2022/01/16 04:46:51;;;;;;;31.23;17.15;;;;;;;6.07;100.00;102128.88;5077655;28;20046;-35
2022/01/16 04:49:20;;;;;;;31.27;17.40;;;;;;;6.08;100.00;102130.59;5084981;28;20067;-35
2022/01/16 04:51:48;;;;;;;28.10;17.40;;;;;;;6.10;100.00;102136.72;5080312;28;20052;-35
2022/01/16 04:54:16;;;;;;;31.13;16.88;;;;;;;6.11;100.00;102130.97;5082907;28;20051;-32
2022/01/16 04:56:44;;;;;;;32.22;15.45;;;;;;;6.13;100.00;102133.50;5081134;28;20074;-37
2022/01/16 04:59:12;;;;;;;31.45;17.23;;;;;;;6.15;100.00;102136.88;5076803;28;20051;-34
2022/01/16 05:01:39;;;;;;;31.35;16.35;;;;;;;6.17;100.00;102131.94;5078753;28;20561;-34
2022/01/16 05:04:08;;;;;;;30.70;16.65;;;;;;;6.19;100.00;102136.13;5076544;28;20052;-39
2022/01/16 05:06:37;;;;;;;25.90;15.57;;;;;;;6.21;100.00;102144.22;5086983;28;20117;-36
2022/01/16 05:09:05;;;;;;;22.42;14.07;;;;;;;6.23;100.00;102133.72;5076584;28;20044;-36
2022/01/16 05:11:33;;;;;;;33.30;16.75;;;;;;;6.25;100.00;102139.88;5077711;28;20051;-36
2022/01/16 05:16:46;;;;;;;27.50;15.02;;;;;;;6.29;100.00;102123.63;5077365;28;20051;-33
2022/01/16 05:19:15;;;;;;;29.65;15.38;;;;;;;6.32;100.00;102120.38;5085618;28;20161;-36
2022/01/16 05:21:44;;;;;;;25.05;14.48;;;;;;;6.33;100.00;102119.28;5082860;28;20519;-34
2022/01/16 05:24:13;;;;;;;26.45;14.18;;;;;;;6.34;100.00;102124.59;5079156;28;20509;-35
2022/01/16 05:26:43;;;;;;;26.20;14.43;;;;;;;6.37;100.00;102132.44;5085292;28;20044;-35
2022/01/16 05:29:11;;;;;;;30.00;15.23;;;;;;;6.39;100.00;102132.19;5076225;28;20062;-32
2022/01/16 05:31:44;;;;;;;29.27;15.73;;;;;;;6.41;100.00;102125.31;5085643;28;20052;-29
2022/01/16 05:34:13;;;;;;;28.20;15.43;;;;;;;6.42;100.00;102142.78;5074235;28;20055;-32
2022/01/16 05:36:40;;;;;;;28.27;14.68;;;;;;;6.42;100.00;102135.31;5073272;28;20402;-34
2022/01/16 05:39:10;;;;;;;25.40;13.57;;;;;;;6.45;100.00;102134.00;5083359;28;20113;-35
2022/01/16 05:41:38;;;;;;;26.13;13.40;;;;;;;6.44;100.00;102129.53;5073978;28;20052;-31
2022/01/16 05:44:06;;;;;;;26.33;13.30;;;;;;;6.44;100.00;102135.91;5084961;28;20390;-33
2022/01/16 05:46:34;;;;;;;22.45;11.00;;;;;;;6.43;100.00;102139.78;5077735;28;20048;-34
2022/01/16 05:49:02;;;;;;;27.38;11.63;;;;;;;6.44;100.00;102129.53;5086264;28;20089;-34
2022/01/16 05:51:30;;;;;;;21.92;12.75;;;;;;;6.44;100.00;102130.38;5076909;28;20052;-36
2022/01/16 05:53:57;;;;;;;21.27;12.05;;;;;;;6.46;100.00;102132.91;5073652;28;20044;-35
2022/01/16 05:56:26;;;;;;;23.42;11.98;;;;;;;6.46;100.00;102132.91;5079799;28;20054;-34
2022/01/16 05:58:54;;;;;;;22.80;12.05;;;;;;;6.45;100.00;102134.84;5082226;28;20044;-41
2022/01/16 06:01:22;;;;;;;22.45;11.27;;;;;;;6.47;100.00;102138.22;5080565;28;20055;-35
2022/01/16 06:03:50;;;;;;;21.02;11.95;;;;;;;6.49;100.00;102141.59;5081736;28;20040;-35
2022/01/16 06:06:17;;;;;;;22.35;11.27;;;;;;;6.52;100.00;102137.50;5078351;28;20048;-37
2022/01/16 06:08:45;;;;;;;19.40;11.73;;;;;;;6.52;100.00;102140.28;5082061;28;20052;-36
2022/01/16 06:11:13;;;;;;;25.17;12.07;;;;;;;6.52;100.00;102135.56;5079633;28;20413;-36
2022/01/16 06:13:42;;;;;;;23.27;10.90;;;;;;;6.54;100.00;102141.72;5081092;28;20043;-32
2022/01/16 06:16:10;;;;;;;19.48;10.48;;;;;;;6.55;100.00;102142.56;5081338;28;20044;-36
2022/01/16 06:18:38;;;;;;;21.35;10.63;;;;;;;6.56;100.00;102147.03;5078725;28;20579;-37
2022/01/16 06:21:05;;;;;;;19.55;9.68;;;;;;;6.57;100.00;102145.94;5083639;28;20460;-32
2022/01/16 06:23:33;;;;;;;15.88;9.07;;;;;;;6.59;100.00;102151.25;5077545;28;20056;-39
2022/01/16 06:26:01;;;;;;;17.67;9.85;;;;;;;6.58;100.00;102144.88;5084580;28;20040;-37
2022/01/16 06:28:30;;;;;;;19.70;10.50;;;;;;;6.61;100.00;102155.44;5064013;28;20063;-37
2022/01/16 06:31:04;;;;;;;18.23;9.35;;;;;;;6.62;100.00;102159.06;5085746;28;20060;-39
2022/01/16 06:33:32;;;;;;;19.70;9.70;;;;;;;6.64;100.00;102156.91;5076545;28;20048;-34
2022/01/16 06:36:01;;;;;;;17.50;9.27;;;;;;;6.65;100.00;102156.66;5085974;28;20041;-34
2022/01/16 06:38:29;;;;;;;18.00;9.07;;;;;;;6.66;100.00;102155.56;5076469;28;20056;-32
2022/01/16 06:40:57;;;;;;;21.98;9.60;;;;;;;6.68;100.00;102161.72;5082495;28;20405;-36
2022/01/16 06:43:24;;;;;;;17.55;8.63;;;;;;;6.70;100.00;102155.94;5077036;28;20174;-34
2022/01/16 06:45:52;;;;;;;22.27;8.57;;;;;;;6.73;100.00;102166.56;5084998;28;20036;-36
2022/01/16 06:48:21;;;;;;;19.88;7.97;;;;;;;6.74;100.00;102169.09;5076601;28;20684;-37
2022/01/16 06:50:49;;;;;;;17.70;8.10;;;;;;;6.73;100.00;102170.19;5083584;28;20052;-36
2022/01/16 06:53:17;;;;;;;16.08;7.72;;;;;;;6.77;100.00;102182.47;5078927;28;20048;-39
2022/01/16 06:55:44;;;;;;;15.60;7.18;;;;;;;6.77;100.00;102185.25;5082323;28;20059;-37
2022/01/16 06:58:12;;;;;;;16.98;7.38;;;;;;;6.76;100.00;102178.03;5079956;28;20127;-35
2022/01/16 07:00:40;;;;;;;21.63;7.47;;;;;;;6.79;100.00;102182.25;5081562;28;20074;-34
2022/01/16 07:03:08;;;;;;;16.75;6.75;;;;;;;6.79;100.00;102185.88;5078592;28;20055;-35
2022/01/16 07:05:37;;;;;;;18.13;6.93;;;;;;;6.81;100.00;102194.75;5081837;28;20504;-37
2022/01/16 07:08:05;;;;;;;11.73;6.75;;;;;;;6.80;100.00;102184.75;5061843;28;20048;-40
2022/01/16 07:10:33;;;;;;;18.52;6.60;;;;;;;6.81;100.00;102188.38;5087986;28;20454;-37
2022/01/16 07:13:01;;;;;;;18.20;6.70;;;;;;;6.81;100.00;102185.59;5084604;28;20047;-32
2022/01/16 07:15:28;;;;;;;17.42;6.30;;;;;;;6.82;100.00;102195.59;5086009;28;20052;-31
2022/01/16 07:17:57;;;;;;;11.93;5.20;;;;;;;6.84;100.00;102194.28;5081177;28;20040;-38
2022/01/16 07:20:25;;;;;;;15.45;5.70;;;;;;;6.84;100.00;102191.50;5086866;28;20056;-31
2022/01/16 07:22:54;;;;;;;15.30;5.32;;;;;;;6.86;100.00;102202.38;5078192;28;20044;-31
2022/01/16 07:25:22;;;;;;;16.08;6.15;;;;;;;6.86;100.00;102203.22;5088738;28;20390;-39
2022/01/16 07:27:49;;;;;;;14.43;5.38;;;;;;;6.87;100.00;102201.28;5087776;28;20040;-38
2022/01/16 07:30:17;;;;;;;12.75;5.45;;;;;;;6.89;100.00;102210.22;5086153;28;20040;-32
2022/01/16 07:32:45;;;;;;;11.43;5.65;;;;;;;6.90;100.00;102217.44;5078516;28;20044;-33
2022/01/16 07:35:12;;;;;;;11.48;4.90;;;;;;;6.91;100.00;102220.00;5086509;28;20052;-33
2022/01/16 07:38:02;;;;;;;16.50;5.32;;;;;;;6.91;100.00;102221.91;5076503;28;20040;-34
2022/01/16 07:40:33;;;;;;;13.85;5.13;;;;;;;6.92;100.00;102220.84;5087114;28;20124;-39
2022/01/16 07:43:01;;;;;;;13.40;4.57;;;;;;;6.92;100.00;102229.16;5077140;28;20064;-32
2022/01/16 07:45:29;;;;;;;11.02;5.20;;;;;;;6.93;100.00;102238.31;5086578;28;20563;-39
2022/01/16 07:47:56;;;;;;;16.05;4.65;;;;;;;6.93;100.00;102227.22;5078199;28;20059;-35
2022/01/16 07:50:25;;;;;;;16.65;5.05;;;;;;;6.95;100.00;102231.47;5085217;28;20055;-33
2022/01/16 07:52:52;;;;;;;12.63;4.95;;;;;;;6.96;100.00;102230.38;5080126;28;20048;-39
2022/01/16 07:55:25;;;;;;;11.95;4.65;;;;;;;6.98;100.00;102244.00;5083481;28;20057;-34
2022/01/16 07:57:52;;;;;;;;;;;;;;;6.94;100.00;102224.22;5081189;28;20044;-37
2022/01/16 08:00:31;;;;;;;16.83;4.95;;;;;;;6.94;100.00;102231.69;5086234;28;19989;-39
2022/01/16 08:02:59;;;;;;;13.90;4.40;;;;;;;6.96;100.00;102244.25;5079746;28;20051;-33
2022/01/16 08:05:27;;;;;;;12.88;3.95;;;;;;;7.00;100.00;102250.13;5075622;28;20071;-32
2022/01/16 08:07:55;;;;;;;9.05;3.83;;;;;;;7.00;100.00;102234.31;5079204;28;20036;-34
2022/01/16 08:10:24;;;;;;;9.98;3.40;;;;;;;7.03;100.00;102238.56;5076573;28;20048;-42
2022/01/16 08:12:52;;;;;;;10.50;3.33;;;;;;;7.03;100.00;102241.31;5079179;28;20055;-37
2022/01/16 08:15:20;;;;;;;12.10;3.78;;;;;;;7.04;100.00;102243.88;5078368;28;20048;-33
2022/01/16 08:17:48;;;;;;;10.32;3.10;;;;;;;7.07;100.00;102235.06;5082494;28;20126;-38
2022/01/16 08:20:16;;;;;;;12.55;3.40;;;;;;;7.09;100.00;102227.34;5082152;28;20048;-37
2022/01/16 08:22:45;;;;;;;11.30;3.25;;;;;;;7.10;100.00;102228.19;5084161;28;20051;-37
2022/01/16 08:25:13;;;;;;;10.27;3.30;;;;;;;7.12;100.00;102226.84;5079498;28;20110;-37
2022/01/16 08:27:43;;;;;;;11.15;2.97;;;;;;;7.12;100.00;102226.00;5068097;28;20055;-35
2022/01/16 08:30:12;;;;;;;12.80;3.40;;;;;;;7.14;100.00;102224.69;5078158;28;20032;-37
2022/01/16 08:32:42;;;;;;;11.90;3.47;;;;;;;7.15;100.00;102229.16;5085740;28;20055;-41
2022/01/16 08:35:10;;;;;;;10.48;2.83;;;;;;;7.14;100.00;102224.69;5077317;28;20040;-34
2022/01/16 08:37:38;;;;;;;8.80;2.83;;;;;;;7.16;100.00;102221.66;5084237;28;20438;-37
2022/01/16 08:40:07;;;;;;;10.85;3.17;;;;;;;7.17;100.00;102229.75;5076224;28;20145;-35
2022/01/16 08:42:36;;;;;;;10.70;2.97;;;;;;;7.19;100.00;102233.09;5086490;28;20058;-39
2022/01/16 08:45:06;;;;;;;12.85;3.42;;;;;;;7.21;100.00;102233.72;5077746;28;20044;-32
2022/01/16 08:47:34;;;;;;;12.05;3.90;;;;;;;7.23;100.00;102239.88;5085327;28;20040;-32
2022/01/16 08:50:04;;;;;;;11.52;3.58;;;;;;;7.23;100.00;102237.09;5077818;28;20057;-35
2022/01/16 08:52:31;;;;;;;13.60;3.90;;;;;;;7.25;100.00;102240.47;5085962;28;20044;-38
2022/01/16 08:55:01;;;;;;;15.10;4.63;;;;;;;7.25;100.00;102243.25;5079236;28;20432;-38
2022/01/16 08:57:29;;;;;;;13.38;4.75;;;;;;;7.28;100.00;102252.19;5084456;28;20053;-40
2022/01/16 08:59:57;;;;;;;12.18;5.10;;;;;;;7.29;100.00;102256.66;5080227;28;20057;-36
2022/01/16 09:02:26;;;;;;;15.10;4.85;;;;;;;7.29;100.00;102259.41;5083047;28;20506;-33
2022/01/16 09:04:54;;;;;;;13.70;4.63;;;;;;;7.30;100.00;102263.88;5081793;28;20049;-31
2022/01/16 09:07:21;;;;;;;17.40;5.20;;;;;;;7.31;100.00;102268.34;5083045;28;20052;-37
2022/01/16 09:09:49;;;;;;;12.00;4.78;;;;;;;7.31;100.00;102268.34;5081502;28;20041;-36
2022/01/16 09:12:18;;;;;;;13.10;4.32;;;;;;;7.32;100.00;102275.59;5083254;28;20493;-38
2022/01/16 09:14:45;;;;;;;13.40;4.35;;;;;;;7.31;100.00;102271.13;5081754;28;20060;-34
2022/01/16 09:17:13;;;;;;;11.07;4.60;;;;;;;7.32;100.00;102270.03;5082371;28;20048;-32
2022/01/16 09:19:42;;;;;;;12.25;5.05;;;;;;;7.34;100.00;102284.53;5087287;28;20400;-37
2022/01/16 09:22:10;;;;;;;12.07;4.88;;;;;;;7.35;100.00;102275.97;5083289;28;20512;-31
2022/01/16 09:24:38;;;;;;;13.57;4.75;;;;;;;7.38;100.00;102280.19;5084587;28;20067;-32
2022/01/16 09:27:06;;;;;;;12.88;4.70;;;;;;;7.39;100.00;102291.06;5082281;28;20052;-38
2022/01/16 09:29:34;;;;;;;13.60;5.18;;;;;;;7.40;100.00;102289.94;5088732;28;20485;-33
2022/01/16 09:32:01;;;;;;;16.10;5.82;;;;;;;7.43;100.00;102286.69;5080388;28;20040;-35
2022/01/16 09:34:29;;;;;;;20.23;5.78;;;;;;;7.46;100.00;102302.03;5089493;28;20048;-30
2022/01/16 09:36:58;;;;;;;12.90;5.07;;;;;;;7.47;100.00;102300.94;5079730;28;20052;-37
2022/01/16 09:39:26;;;;;;;15.70;5.88;;;;;;;7.49;100.00;102310.72;5087502;28;20040;-32
2022/01/16 09:41:54;;;;;;;16.83;5.47;;;;;;;7.51;100.00;102308.53;5079963;28;20044;-34
2022/01/16 09:44:22;;;;;;;12.32;5.20;;;;;;;7.53;100.00;102305.53;5088639;28;20512;-33
2022/01/16 09:46:50;;;;;;;17.15;5.40;;;;;;;7.55;100.00;102312.53;5081901;28;20093;-41
2022/01/16 09:49:18;;;;;;;19.77;6.35;;;;;;;7.55;100.00;102304.19;5087486;28;20061;-38
2022/01/16 09:51:46;;;;;;;12.80;5.55;;;;;;;7.58;100.00;102309.28;5083358;28;20056;-35
2022/01/16 09:54:15;;;;;;;16.33;5.55;;;;;;;7.60;100.00;102318.16;5085897;28;20052;-38
2022/01/16 09:56:43;;;;;;;15.65;5.68;;;;;;;7.61;100.00;102319.88;5083520;28;20041;-41
2022/01/16 09:59:10;;;;;;;17.63;5.43;;;;;;;7.64;100.00;102318.53;5079574;28;20044;-35
2022/01/16 10:01:38;;;;;;;11.80;5.32;;;;;;;7.66;100.00;102313.59;5082199;28;20052;-36
2022/01/16 10:04:30;;;;;;;15.07;5.00;;;;;;;7.69;100.00;102317.81;5078763;28;20417;-37
2022/01/16 10:06:59;;;;;;;16.90;5.70;;;;;;;7.67;100.00;102318.06;5092617;28;20146;-38
2022/01/16 10:09:28;;;;;;;14.10;6.35;;;;;;;7.68;100.00;102316.97;5087511;28;20041;-34
2022/01/16 10:11:58;;;;;;;12.82;5.07;;;;;;;7.69;100.00;102315.88;5083682;28;20051;-32
2022/01/16 10:14:47;;;;;;;14.23;5.20;;;;;;;7.69;100.00;102323.38;5089711;28;20040;-33
2022/01/16 10:17:17;;;;;;;16.80;5.30;;;;;;;7.72;100.00;102323.72;5083846;28;20041;-40
2022/01/16 10:19:45;;;;;;;15.52;5.53;;;;;;;7.75;100.00;102323.25;5086905;28;20062;-37
2022/01/16 10:22:15;;;;;;;10.48;4.75;;;;;;;7.77;100.00;102329.41;5083811;28;20052;-35
2022/01/16 10:24:44;;;;;;;13.35;5.38;;;;;;;7.78;100.00;102328.31;5085183;28;20052;-40
2022/01/16 10:27:18;;;;;;;15.88;5.20;;;;;;;7.81;100.00;102329.72;5084507;28;20056;-34
2022/01/16 10:29:51;;;;;;;13.43;5.30;;;;;;;7.80;100.00;102326.13;5085007;28;20059;-38
2022/01/16 10:32:22;;;;;;;15.15;5.20;;;;;;;7.80;100.00;102317.78;5086764;28;20055;-32
2022/01/16 10:34:52;;;;;;;14.18;5.18;;;;;;;7.83;100.00;102314.50;5082205;28;20055;-32
2022/01/16 10:37:30;;;;;;;12.55;5.00;;;;;;;7.85;100.00;102314.25;5083686;28;20401;-39
2022/01/16 10:40:09;;;;;;;15.10;4.55;;;;;;;7.86;100.00;102315.97;5084337;28;20167;-40
2022/01/16 10:42:39;;;;;;;15.43;4.72;;;;;;;7.86;100.00;102319.59;5087494;28;20055;-33
2022/01/16 10:45:09;;;;;;;16.25;4.95;;;;;;;7.87;100.00;102318.50;5084130;28;20417;-32
2022/01/16 10:47:39;;;;;;;14.00;4.75;;;;;;;7.90;100.00;102319.94;5084304;28;20060;-37
2022/01/16 10:50:19;;;;;;;13.73;4.90;;;;;;;7.91;100.00;102325.25;5082127;28;20059;-35
2022/01/16 10:52:58;;;;;;;16.17;5.03;;;;;;;7.94;100.00;102326.69;5084470;28;20505;-38
2022/01/16 10:55:36;;;;;;;17.02;4.90;;;;;;;7.95;100.00;102334.81;5083483;28;20048;-35
2022/01/16 10:58:08;;;;;;;14.50;4.20;;;;;;;7.93;100.00;102331.41;5069544;28;20056;-37
2022/01/16 11:00:37;;;;;;;10.93;4.38;;;;;;;7.95;100.00;102336.72;5082858;28;20044;-39
2022/01/16 11:03:07;;;;;;;14.07;4.70;;;;;;;7.97;100.00;102339.28;5085242;28;20078;-37
2022/01/16 11:05:37;;;;;;;13.23;4.22;;;;;;;8.00;100.00;102338.75;5081629;28;20079;-34
2022/01/16 11:08:09;;;;;;;14.35;4.53;;;;;;;8.02;100.00;102340.19;5086149;28;20044;-38
2022/01/16 11:10:40;;;;;;;14.52;4.28;;;;;;;8.05;100.00;102349.97;5080790;28;20052;-37
2022/01/16 11:13:10;;;;;;;12.80;4.60;;;;;;;8.07;100.00;102347.81;5087852;28;20063;-39
2022/01/16 11:15:40;;;;;;;13.43;4.35;;;;;;;8.08;100.00;102347.56;5075586;28;20074;-29
2022/01/16 11:18:09;;;;;;;15.40;4.57;;;;;;;8.06;100.00;102340.56;5076000;28;20140;-32
2022/01/16 11:20:38;;;;;;;13.23;4.53;;;;;;;8.06;100.00;102343.34;5084300;28;20052;-36
2022/01/16 11:23:15;;;;;;;17.92;5.07;;;;;;;8.08;100.00;102341.16;5076093;28;20040;-34
2022/01/16 11:25:45;;;;;;;12.10;4.28;;;;;;;8.08;100.00;102335.59;5085072;28;20040;-38
2022/01/16 11:28:15;;;;;;;14.20;4.97;;;;;;;8.09;100.00;102343.69;5075329;28;20072;-36
2022/01/16 11:30:47;;;;;;;14.35;4.30;;;;;;;8.09;100.00;102348.41;5084680;28;20048;-35
2022/01/16 11:33:21;;;;;;;12.43;4.43;;;;;;;8.12;100.00;102354.31;5075869;28;20044;-32
2022/01/16 11:35:53;;;;;;;15.90;4.95;;;;;;;8.15;100.00;102361.34;5083678;28;20059;-36
2022/01/16 11:38:22;;;;;;;14.93;4.70;;;;;;;8.14;100.00;102351.31;5076125;28;20052;-36
2022/01/16 11:40:52;;;;;;;12.68;4.40;;;;;;;8.16;100.00;102355.53;5077544;28;20448;-36
2022/01/16 11:43:23;;;;;;;13.07;4.57;;;;;;;8.15;100.00;102358.56;5085367;28;20051;-40
2022/01/16 11:46:04;;;;;;;10.75;3.95;;;;;;;8.16;100.00;102354.69;5078689;28;20574;-36
2022/01/16 11:48:49;;;;;;;15.95;4.63;;;;;;;8.14;100.00;102352.16;5077058;28;20405;-36
2022/01/16 11:51:52;;;;;;;13.20;4.60;;;;;;;8.14;100.00;102356.88;5078007;28;20048;-36
2022/01/16 11:54:25;;;;;;;15.10;4.82;;;;;;;8.11;100.00;102341.50;5086107;28;20138;-38
2022/01/16 11:56:55;;;;;;;;;;;;;;;8.08;100.00;102349.50;5078203;28;20493;-40
2022/01/16 11:59:25;;;;;;;13.40;4.10;;;;;;;8.04;100.00;102351.06;5086875;28;19939;-40